Iruma Air Base, Japan

5:04 PM JST on September 17, 2014 (GMT +0900)
ITOKYOMU2 | Change Station
CLOSE
Current Station
Personal Weather Station
Location: Musashimurayama, TOKYO
Elevation: 361 ft
Nearby Weather Stations

Elev 361 ft 35.74 °N, 139.40 °E | Updated 3 minutes ago

Partly Cloudy
Partly Cloudy
74.9 °F
Feels Like 78 °F
N
3.0
Wind Variable Wind from NNE
Gusts 3.0 mph

Today
High -- | Low -- °F
--% Chance of Precip.
Yesterday
High -- | Low -- °F
Precip. -- in
5:25 AM 5:47 PM
Last Quarter, 38% visible
Pressure 29.94 in
Visibility 10.0 miles
Clouds Few 16000 ft
Heat Index 78 °F
Dew Point 57 °F
Humidity 53%
Rainfall 0.00 in
Snow Depth Not available.
UV 0 out of 12
Pollen Not available.
Air Quality Not available.
Flu Activity Not available.
METAR RJTY 170758Z AUTO 05007KT 10SM FEW160 23/15 A2994 RMK AO2 SLP137 T02320154

More Conditions Fewer Conditions

Pressure 29.94 in
Visibility 10.0 miles
Clouds Few 16000 ft
Heat Index 78 °F
Dew Point 57 °F
Humidity 53%
Rainfall 0.00 in
Snow Depth Not available.
UV 0 out of 12
Pollen Not available.
Air Quality Not available.
Flu Activity Not available.
METAR RJTY 170758Z AUTO 05007KT 10SM FEW160 23/15 A2994 RMK AO2 SLP137 T02320154

More Conditions Fewer Conditions

10-Day Weather Forecast

Almanac

Astronomy

Sep. 17, 2014 Rise Set
Actual Time 5:25 AM JST 5:47 PM JST
Civil Twilight 5:00 AM JST 6:13 PM JST
Nautical Twilight 4:30 AM JST 6:43 PM JST
Astronomical Twilight 3:59 AM JST 7:13 PM JST
Moon 11:53 PM JST 1:20 PM JST
Length of Visible Light 13h 12m
Length of Day
12h 21m
Tomorrow will be 2m 14s shorter.
Last Quarter, 38% of the Moon is Illuminated
Today
Last Quarter
Sep 24
New
Oct 1
First Quarter
Oct 8
Full
Oct 15
Last Quarter

Yesterday's Extremes

Country Highs Country Lows

Community

WunderPhotos

Upload Photos

1,753,976 photos uploaded!

Nearby

Snow Depth

Not available.

Earthquake Activity

City Distance Mag. Time & Date
No recent earthquake activity has been reported nearby.
Minimum magnitude displayed is 2.5.

Coastal Water Temperatures

Place Temperature
No Stations Reporting

Nearby Weather Stations